Аэропорт: Шереметьево. Москва

ICAO: UUEE

METAR:
2021-04-21 21:30:00
UUEE 212130Z 19005MPS CAVOK 05/02 Q1010 R24C/290045 R24R/290045 NOSIG
METAR:
2021-04-21 19:59:00
TAF UUEE 211959Z 2121/2221 18003G08MPS 9000 BKN016 TX13/2212Z TN03/2202Z TEMPO 2200/2206 SCT007 TEMPO 2209/2218 18008G13MPS -SHRA BKN016CB PROB40 TEMPO 2210/2215 -TSRA BKN012CB